Time;durP1;ratioP1;P1;durP2;ratioP2;P2;SDS_P1;SDS_P2;PMS_P1;PMS_P2;Temp;Humidity;BMP_temperature;BMP_pressure;BME280_temperature;BME280_humidity;BME280_pressure;Samples;Min_cycle;Max_cycle;Signal;HPM_P1;HPM_P2
2022/12/10 04:02:50;;;;;;;1.80;1.80;;;4.20;83.10;;;;;;5073078;23;20659;-78
2022/12/10 04:05:17;;;;;;;1.63;1.63;;;4.20;83.10;;;;;;4993744;28;20446;-78
2022/12/10 04:07:44;;;;;;;1.83;1.73;;;4.20;83.20;;;;;;4993792;28;20452;-78
2022/12/10 04:10:11;;;;;;;2.17;2.17;;;4.20;83.10;;;;;;4993701;28;20449;-78
2022/12/10 04:12:37;;;;;;;1.80;1.80;;;4.30;83.00;;;;;;4993318;28;20981;-78
2022/12/10 04:17:50;;;;;;;1.80;1.80;;;4.20;82.90;;;;;;4995636;28;20408;-78
2022/12/10 04:28:29;;;;;;;2.50;2.40;;;4.30;82.70;;;;;;4997499;28;20898;-78
2022/12/10 04:30:56;;;;;;;2.17;2.07;;;4.30;82.60;;;;;;4996937;28;21012;-78
2022/12/10 04:33:24;;;;;;;2.10;2.10;;;4.30;82.70;;;;;;4997194;28;20456;-78
2022/12/10 04:35:50;;;;;;;1.50;1.50;;;4.30;82.80;;;;;;4997202;28;20458;-78
2022/12/10 04:38:17;;;;;;;2.23;2.23;;;4.30;82.60;;;;;;4997212;28;20452;-78
2022/12/10 04:40:44;;;;;;;2.10;2.10;;;4.30;82.80;;;;;;4996782;28;21002;-78
2022/12/10 04:43:10;;;;;;;2.07;2.07;;;4.40;82.60;;;;;;4997085;28;20449;-78
2022/12/10 04:45:37;;;;;;;1.70;1.70;;;4.40;82.30;;;;;;4997029;28;20438;-78
2022/12/10 04:48:04;;;;;;;1.87;1.87;;;4.40;82.20;;;;;;4996989;28;20448;-77
2022/12/10 04:50:32;;;;;;;2.00;2.00;;;4.30;82.30;;;;;;4996875;28;20445;-78
2022/12/10 04:52:59;;;;;;;1.73;1.73;;;4.40;82.10;;;;;;4996881;28;20457;-78
2022/12/10 04:55:25;;;;;;;2.00;2.00;;;4.40;82.10;;;;;;4996774;28;20851;-78
2022/12/10 04:57:52;;;;;;;2.20;2.20;;;4.30;82.20;;;;;;4996810;28;20464;-78
2022/12/10 05:00:19;;;;;;;1.60;1.60;;;4.30;82.20;;;;;;4996745;28;20507;-78
2022/12/10 05:02:49;;;;;;;2.10;2.10;;;4.40;82.20;;;;;;4996469;28;20461;-78
2022/12/10 05:05:16;;;;;;;1.97;1.87;;;4.40;82.20;;;;;;4996660;28;20449;-78
2022/12/10 05:07:44;;;;;;;1.90;1.90;;;4.40;82.20;;;;;;4996675;28;20457;-78
2022/12/10 05:10:10;;;;;;;2.00;2.00;;;4.40;82.20;;;;;;4996594;28;20454;-78
2022/12/10 05:12:37;;;;;;;1.60;1.60;;;4.40;82.10;;;;;;4996502;28;20473;-78
2022/12/10 05:15:05;;;;;;;2.23;2.23;;;4.40;82.10;;;;;;4996190;28;20516;-78
2022/12/10 05:17:31;;;;;;;2.10;2.10;;;4.30;82.10;;;;;;4996451;28;20823;-78
2022/12/10 05:19:58;;;;;;;1.80;1.80;;;4.30;82.10;;;;;;4996421;28;20464;-78
2022/12/10 05:25:10;;;;;;;2.10;2.10;;;4.30;82.30;;;;;;4996438;28;20517;-78
2022/12/10 05:27:37;;;;;;;2.10;2.00;;;4.30;82.40;;;;;;4995932;28;20951;-78
2022/12/10 05:30:05;;;;;;;2.10;2.10;;;4.30;82.20;;;;;;4996256;28;20483;-78
2022/12/10 05:32:33;;;;;;;1.70;1.70;;;4.20;82.70;;;;;;4996139;28;20551;-78
2022/12/10 05:35:00;;;;;;;2.23;2.13;;;4.20;82.30;;;;;;4994888;28;20488;-78
2022/12/10 05:37:28;;;;;;;1.83;1.83;;;4.20;82.60;;;;;;4995773;28;20525;-78
2022/12/10 05:39:55;;;;;;;1.63;1.63;;;4.20;82.30;;;;;;4996069;28;20457;-78
2022/12/10 05:42:23;;;;;;;1.60;1.60;;;4.20;82.40;;;;;;4995933;28;20474;-78
2022/12/10 05:44:50;;;;;;;2.10;2.10;;;4.10;82.20;;;;;;4995657;28;20947;-78
2022/12/10 05:47:16;;;;;;;2.00;2.00;;;4.20;82.40;;;;;;4995901;28;20449;-78
2022/12/10 05:49:43;;;;;;;1.60;1.60;;;4.20;82.00;;;;;;4995580;28;20445;-78
2022/12/10 05:52:10;;;;;;;2.00;2.00;;;4.00;82.60;;;;;;4995727;28;20480;-78
2022/12/10 05:54:37;;;;;;;1.57;1.57;;;4.00;82.70;;;;;;4995756;28;20512;-78
2022/12/10 05:57:04;;;;;;;2.20;2.20;;;3.90;83.00;;;;;;4995798;28;20456;-78
2022/12/10 05:59:32;;;;;;;1.93;1.93;;;3.90;83.00;;;;;;4995381;28;20453;-78
2022/12/10 06:01:58;;;;;;;2.07;2.07;;;3.80;83.40;;;;;;4995323;28;20488;-78
2022/12/10 06:04:25;;;;;;;2.00;2.00;;;3.80;83.70;;;;;;4995550;28;20442;-77
2022/12/10 06:06:52;;;;;;;1.80;1.80;;;3.70;83.40;;;;;;4995621;28;20441;-78
2022/12/10 06:09:18;;;;;;;2.07;2.07;;;3.60;84.20;;;;;;4995508;28;20464;-78
2022/12/10 06:11:46;;;;;;;2.10;2.10;;;3.60;83.70;;;;;;4995470;28;20472;-78
2022/12/10 06:14:12;;;;;;;1.67;1.67;;;3.60;83.90;;;;;;4995445;28;20508;-78
2022/12/10 06:16:42;;;;;;;1.83;1.83;;;3.60;83.80;;;;;;4995141;28;20819;-78
2022/12/10 06:19:08;;;;;;;2.20;2.20;;;3.40;83.60;;;;;;4995301;28;20446;-78
2022/12/10 06:21:35;;;;;;;1.90;1.90;;;3.30;84.40;;;;;;4995301;28;20900;-78
2022/12/10 06:24:02;;;;;;;2.30;2.20;;;3.30;84.50;;;;;;4995315;28;20515;-78
2022/12/10 06:26:29;;;;;;;2.07;2.07;;;3.20;84.30;;;;;;4995222;28;20452;-78
2022/12/10 06:28:55;;;;;;;2.13;2.13;;;3.20;85.00;;;;;;4995200;28;20454;-78
2022/12/10 06:31:23;;;;;;;2.00;2.00;;;3.10;84.80;;;;;;4995066;28;20481;-78
2022/12/10 06:33:52;;;;;;;2.33;2.23;;;3.10;85.10;;;;;;4994735;28;20958;-78
2022/12/10 06:36:19;;;;;;;2.17;2.07;;;3.10;85.00;;;;;;4999335;28;20449;-78
2022/12/10 06:38:47;;;;;;;2.10;2.10;;;3.00;84.90;;;;;;4997962;28;20456;-77
2022/12/10 06:41:15;;;;;;;2.13;2.13;;;3.00;85.20;;;;;;4994980;28;20527;-78
2022/12/10 06:43:42;;;;;;;2.10;2.10;;;2.90;85.30;;;;;;4994595;28;20954;-78
2022/12/10 06:46:11;;;;;;;2.00;2.00;;;3.00;85.20;;;;;;4994175;28;20790;-78
2022/12/10 06:48:38;;;;;;;2.50;2.40;;;3.00;85.20;;;;;;4994807;28;20803;-77
2022/12/10 06:51:07;;;;;;;2.27;2.20;;;3.10;84.90;;;;;;4994461;28;20977;-78
2022/12/10 06:53:35;;;;;;;2.57;2.50;;;3.10;84.60;;;;;;4994756;28;20446;-77
2022/12/10 06:56:03;;;;;;;1.90;1.90;;;3.00;84.70;;;;;;4994705;28;20484;-78
2022/12/10 06:58:30;;;;;;;2.27;2.27;;;3.10;84.70;;;;;;4994724;28;20457;-78
2022/12/10 07:01:04;;;;;;;2.17;2.07;;;3.20;84.60;;;;;;4994162;28;20496;-78
2022/12/10 07:03:30;;;;;;;2.17;2.13;;;3.20;84.10;;;;;;4994987;28;20437;-78
2022/12/10 07:05:58;;;;;;;1.90;1.90;;;3.20;83.90;;;;;;4995235;28;20859;-78
2022/12/10 07:08:26;;;;;;;2.17;2.17;;;3.20;83.90;;;;;;4995340;28;20459;-78
2022/12/10 07:10:53;;;;;;;2.10;2.10;;;3.20;84.00;;;;;;4995075;28;20462;-78
2022/12/10 07:13:20;;;;;;;1.40;1.40;;;3.20;83.70;;;;;;4995104;28;20452;-78
2022/12/10 07:15:47;;;;;;;2.10;2.10;;;3.20;84.00;;;;;;4994918;28;20488;-78
2022/12/10 07:18:13;;;;;;;2.17;2.17;;;3.30;83.50;;;;;;4994746;28;20822;-78
2022/12/10 07:20:40;;;;;;;2.43;2.40;;;3.30;83.30;;;;;;4994814;28;20988;-78
2022/12/10 07:23:07;;;;;;;2.10;2.10;;;3.20;83.70;;;;;;4996656;28;20452;-78
2022/12/10 07:25:35;;;;;;;2.30;2.20;;;3.20;83.70;;;;;;4997332;28;20445;-78
2022/12/10 07:28:01;;;;;;;1.90;1.90;;;3.20;83.80;;;;;;4994223;28;20452;-78
2022/12/10 07:30:28;;;;;;;2.00;2.00;;;3.20;83.60;;;;;;4994060;28;20449;-78
2022/12/10 07:32:55;;;;;;;2.30;2.30;;;3.10;83.70;;;;;;4993913;28;20978;-78
2022/12/10 07:35:22;;;;;;;1.80;1.80;;;3.10;83.80;;;;;;4994100;28;20485;-78
2022/12/10 07:37:48;;;;;;;2.03;2.03;;;3.20;84.10;;;;;;4994121;28;20453;-79
2022/12/10 07:40:15;;;;;;;2.07;2.07;;;3.20;83.70;;;;;;4994114;28;20456;-78
2022/12/10 07:42:43;;;;;;;1.90;1.90;;;3.20;83.80;;;;;;4993627;28;20998;-78
2022/12/10 07:45:11;;;;;;;1.67;1.67;;;3.20;83.70;;;;;;4993995;28;20449;-78
2022/12/10 07:47:38;;;;;;;2.30;2.30;;;3.30;83.50;;;;;;4993694;28;20453;-78
2022/12/10 07:50:06;;;;;;;2.47;2.37;;;3.30;83.20;;;;;;4993959;28;20449;-78
2022/12/10 07:52:32;;;;;;;2.10;2.10;;;3.30;83.10;;;;;;4993979;28;20469;-78
2022/12/10 07:54:59;;;;;;;2.00;2.00;;;3.40;83.20;;;;;;4993538;28;20492;-78
2022/12/10 07:57:26;;;;;;;2.13;2.03;;;3.40;82.90;;;;;;4993885;28;20450;-79
2022/12/10 07:59:54;;;;;;;1.90;1.90;;;3.50;82.80;;;;;;4996623;28;20469;-79
2022/12/10 08:02:21;;;;;;;2.20;2.13;;;3.50;82.70;;;;;;4997583;28;20476;-78
2022/12/10 08:04:47;;;;;;;1.90;1.90;;;3.50;82.50;;;;;;4997852;28;20453;-78
2022/12/10 08:07:14;;;;;;;2.23;2.13;;;3.40;82.50;;;;;;4997540;28;20950;-78
2022/12/10 08:09:41;;;;;;;2.13;2.13;;;3.40;82.60;;;;;;4997716;28;20527;-79
2022/12/10 08:12:07;;;;;;;2.00;2.00;;;3.40;82.60;;;;;;4997702;28;20469;-79
2022/12/10 08:14:34;;;;;;;1.87;1.87;;;3.40;82.50;;;;;;4997625;28;20445;-78
2022/12/10 08:17:02;;;;;;;2.50;2.40;;;3.50;82.60;;;;;;4997691;28;20445;-78
2022/12/10 08:19:29;;;;;;;2.00;2.00;;;3.50;82.40;;;;;;4997600;28;20459;-78
2022/12/10 08:21:56;;;;;;;1.90;1.90;;;3.60;82.00;;;;;;4997466;28;20479;-79
2022/12/10 08:24:23;;;;;;;1.93;1.93;;;3.60;81.60;;;;;;4999152;28;20446;-79
2022/12/10 08:26:49;;;;;;;1.93;1.93;;;3.60;81.90;;;;;;5005033;28;20448;-78
2022/12/10 08:29:16;;;;;;;1.97;1.97;;;3.60;81.70;;;;;;5006052;28;20453;-78
2022/12/10 08:31:43;;;;;;;2.03;2.03;;;3.60;81.70;;;;;;5006402;28;20465;-78
2022/12/10 08:34:14;;;;;;;1.63;1.63;;;3.50;81.80;;;;;;5004995;28;20449;-78
2022/12/10 08:36:41;;;;;;;1.73;1.73;;;3.40;82.10;;;;;;5004757;28;20898;-78
2022/12/10 08:39:10;;;;;;;2.00;2.00;;;3.50;82.50;;;;;;5008813;28;20449;-79
2022/12/10 08:41:37;;;;;;;2.10;2.10;;;3.50;82.70;;;;;;5011274;28;20508;-79
2022/12/10 08:44:04;;;;;;;1.90;1.90;;;3.60;82.10;;;;;;5009928;28;20448;-79
2022/12/10 08:46:31;;;;;;;2.00;2.00;;;3.60;81.70;;;;;;5009016;28;20449;-78
2022/12/10 08:48:57;;;;;;;2.10;2.10;;;3.60;81.80;;;;;;5010056;28;20457;-79
2022/12/10 08:51:26;;;;;;;1.70;1.70;;;3.70;81.80;;;;;;5010163;28;20465;-79
2022/12/10 08:53:52;;;;;;;1.90;1.90;;;3.70;81.70;;;;;;5009863;28;20453;-79
2022/12/10 08:56:19;;;;;;;2.10;2.00;;;3.80;81.90;;;;;;5010496;28;20848;-79
2022/12/10 08:58:46;;;;;;;2.33;2.33;;;3.90;81.50;;;;;;5007094;28;20472;-78
2022/12/10 09:01:15;;;;;;;2.10;2.10;;;3.80;80.80;;;;;;5006409;28;20488;-79
2022/12/10 09:03:41;;;;;;;2.00;1.90;;;3.80;81.30;;;;;;5003880;28;20461;-79
2022/12/10 09:06:10;;;;;;;2.13;2.13;;;3.80;81.00;;;;;;5004529;28;20464;-79
2022/12/10 09:08:39;;;;;;;2.30;2.30;;;3.90;81.10;;;;;;5001984;28;20445;-76
2022/12/10 09:11:07;;;;;;;2.17;2.17;;;3.80;80.90;;;;;;4999251;28;20473;-77
2022/12/10 09:13:33;;;;;;;1.90;1.90;;;3.70;81.40;;;;;;4999060;28;20453;-77
2022/12/10 09:16:00;;;;;;;2.37;2.37;;;3.60;81.90;;;;;;4999079;28;20481;-77
2022/12/10 09:18:27;;;;;;;1.90;1.90;;;3.60;82.00;;;;;;4999873;28;20460;-78
2022/12/10 09:20:53;;;;;;;2.07;2.07;;;3.50;81.50;;;;;;4999463;28;20476;-78
2022/12/10 09:23:20;;;;;;;2.20;2.20;;;3.40;82.40;;;;;;5000851;28;20445;-78
2022/12/10 09:25:48;;;;;;;1.70;1.70;;;3.50;82.10;;;;;;4999731;28;20448;-77
2022/12/10 09:28:15;;;;;;;2.00;2.00;;;3.50;82.20;;;;;;5000921;28;20453;-78
2022/12/10 09:30:42;;;;;;;2.10;2.10;;;3.50;82.10;;;;;;4997692;28;20473;-77
2022/12/10 09:33:09;;;;;;;1.67;1.67;;;3.60;81.80;;;;;;4997194;28;20460;-78
2022/12/10 09:35:39;;;;;;;2.30;2.20;;;3.50;81.30;;;;;;4999953;28;20486;-78
2022/12/10 09:38:06;;;;;;;1.93;1.93;;;3.50;82.00;;;;;;4999820;28;20457;-79
2022/12/10 09:40:39;;;;;;;2.17;2.17;;;3.40;82.00;;;;;;5002392;28;20453;-79
2022/12/10 09:43:17;;;;;;;1.70;1.70;;;3.40;82.20;;;;;;5002460;28;20437;-79
2022/12/10 09:45:54;;;;;;;2.30;2.20;;;3.50;82.20;;;;;;5002736;28;20505;-78
2022/12/10 09:48:29;;;;;;;1.80;1.80;;;3.50;82.10;;;;;;5001417;28;20433;-79
2022/12/10 09:51:06;;;;;;;1.70;1.70;;;3.50;81.90;;;;;;4999877;28;21008;-78
2022/12/10 09:53:34;;;;;;;2.00;2.00;;;3.60;82.10;;;;;;4996133;28;20434;-77
2022/12/10 09:56:01;;;;;;;1.70;1.70;;;3.60;81.20;;;;;;4995671;28;20488;-76
2022/12/10 09:58:29;;;;;;;2.00;2.00;;;3.60;81.30;;;;;;4999123;28;20807;-79
2022/12/10 10:00:59;;;;;;;2.07;2.07;;;3.70;81.70;;;;;;5005884;28;20508;-81
2022/12/10 10:03:26;;;;;;;2.00;2.00;;;3.60;81.50;;;;;;5009267;28;20915;-81
2022/12/10 10:05:55;;;;;;;1.93;1.93;;;3.60;81.80;;;;;;5007388;28;20823;-80
2022/12/10 10:08:28;;;;;;;2.00;2.00;;;3.60;81.50;;;;;;5000174;28;20452;-74
2022/12/10 10:11:25;;;;;;;1.97;1.97;;;3.60;81.20;;;;;;4995569;28;20497;-72
2022/12/10 10:13:56;;;;;;;2.03;2.03;;;3.70;81.00;;;;;;5004016;23;20497;-74
2022/12/10 10:16:26;;;;;;;1.93;1.90;;;3.80;81.40;;;;;;4996818;28;20484;-75
2022/12/10 10:18:58;;;;;;;1.63;1.63;;;3.90;81.60;;;;;;4996983;28;20450;-73
2022/12/10 10:21:28;;;;;;;2.10;2.10;;;3.90;81.40;;;;;;4994658;28;20449;-76
2022/12/10 10:23:55;;;;;;;1.83;1.83;;;4.00;81.00;;;;;;4994898;28;21041;-74
2022/12/10 10:26:25;;;;;;;2.00;2.00;;;4.00;80.40;;;;;;4996290;28;20908;-77
2022/12/10 10:28:58;;;;;;;1.60;1.60;;;4.10;80.40;;;;;;4996555;28;20450;-76
2022/12/10 10:31:27;;;;;;;2.43;2.37;;;4.10;80.50;;;;;;4998315;28;20465;-77
2022/12/10 10:33:57;;;;;;;2.20;2.20;;;4.20;79.70;;;;;;5000201;28;20466;-77
2022/12/10 10:36:25;;;;;;;2.00;2.00;;;4.20;80.40;;;;;;4998848;28;20513;-77
2022/12/10 10:38:52;;;;;;;1.73;1.73;;;4.10;80.10;;;;;;5002337;28;20445;-80
2022/12/10 10:41:19;;;;;;;1.90;1.90;;;4.20;80.30;;;;;;5001594;28;20461;-80
2022/12/10 10:43:47;;;;;;;2.10;2.00;;;4.20;79.50;;;;;;5000198;28;20602;-76
2022/12/10 10:46:17;;;;;;;1.70;1.70;;;4.10;80.10;;;;;;4994846;28;20450;-75
2022/12/10 10:48:44;;;;;;;2.00;2.00;;;4.20;79.90;;;;;;4994835;28;20449;-74
2022/12/10 10:51:20;;;;;;;2.50;2.40;;;4.30;79.30;;;;;;4994583;28;20453;-76
2022/12/10 10:53:49;;;;;;;2.10;2.10;;;4.20;79.00;;;;;;4994765;28;20468;-75
2022/12/10 10:56:20;;;;;;;2.40;2.30;;;4.30;79.50;;;;;;4994654;28;20488;-75
2022/12/10 10:58:56;;;;;;;2.23;2.23;;;4.30;78.90;;;;;;4994369;28;20911;-75
2022/12/10 11:01:27;;;;;;;1.93;1.93;;;4.30;78.70;;;;;;4994611;28;20440;-75
2022/12/10 11:03:56;;;;;;;1.97;1.97;;;4.40;78.70;;;;;;4994192;28;20482;-74
2022/12/10 11:06:24;;;;;;;1.90;1.90;;;4.50;78.50;;;;;;4994541;28;20453;-75
2022/12/10 11:08:54;;;;;;;1.90;1.90;;;4.40;78.30;;;;;;4994406;28;20445;-75
2022/12/10 11:11:25;;;;;;;1.90;1.90;;;4.30;78.40;;;;;;4994431;28;20436;-76
2022/12/10 11:13:52;;;;;;;1.70;1.70;;;4.30;78.20;;;;;;4994039;28;20493;-76
2022/12/10 11:16:21;;;;;;;1.60;1.60;;;4.30;78.10;;;;;;4994993;28;20893;-74
2022/12/10 11:19:01;;;;;;;1.70;1.70;;;4.30;78.70;;;;;;4994816;28;20453;-75
2022/12/10 11:21:30;;;;;;;1.80;1.80;;;4.30;78.40;;;;;;4995608;28;20437;-73
2022/12/10 11:23:57;;;;;;;2.23;2.23;;;4.40;79.10;;;;;;4994352;28;20975;-77
2022/12/10 11:26:39;;;;;;;1.60;1.60;;;4.30;79.50;;;;;;4994270;28;20507;-78
2022/12/10 11:29:25;;;;;;;1.97;1.97;;;4.30;78.90;;;;;;4994439;28;20441;-78
